METAR Data
IDs: Format: Raw Decoded Include TAF

Data at: 2121 UTC 20 Nov 2018

KPKV 202115Z AUTO 03008KT 10SM CLR 18/06 A3025 RMK AO2 T01760058
KPKV 202055Z AUTO 04009KT 10SM CLR 18/06 A3025 RMK AO2 T01780061
KPKV 202035Z AUTO 04012KT 10SM CLR 18/06 A3026 RMK AO2 T01790064
KPKV 202015Z AUTO 04013KT 10SM CLR 18/06 A3026 RMK AO2 T01770064
KPKV 201955Z AUTO 01008KT 10SM CLR 18/06 A3027 RMK AO2 T01780062
KPKV 201935Z AUTO 03010KT 10SM CLR 18/06 A3028 RMK AO2 T01760059
KPKV 201815Z AUTO 02009KT 10SM CLR 16/06 A3031 RMK AO2 T01610064
KPKV 201755Z AUTO 02011KT 10SM CLR 16/07 A3031 RMK AO2 6//// T01600065
KPKV 201735Z AUTO 03013KT 10SM CLR 16/07 A3032 RMK AO2 T01580066
KPKV 201715Z AUTO 02011KT 10SM CLR 16/07 A3033 RMK AO2 T01550068
KPKV 201515Z AUTO 01009KT A3033 RMK AO2 PWINO
KPKV 201410Z AUTO 01008KT 10SM CLR 11/06 A3031 RMK AO2 T01080061
KPKV 201400Z AUTO 36010KT 10SM CLR 11/06 A3031 RMK AO2 T01050062
KPKV 201335Z AUTO 36007KT 10SM SCT060 10/06 A3030 RMK AO2 T00970060
KPKV 201315Z AUTO 01009G16KT 10SM SCT060 10/06 A3028 RMK AO2 T00970060
KPKV 201255Z AUTO 01010KT 10SM OVC060 10/06 A3027 RMK AO2 T01020060
KPKV 201235Z AUTO 02008KT 10SM OVC060 11/06 A3026 RMK AO2 T01060061
KPKV 201215Z AUTO 01009KT 10SM OVC060 11/06 A3026 RMK AO2 T01070062
KPKV 201155Z AUTO 01011G16KT 10SM OVC060 11/06 A3026 RMK AO2 70001 T01100062 10120 20110
KPKV 201135Z AUTO 01012G16KT 10SM OVC060 11/06 A3024 RMK AO2 T01130062
KPKV 201115Z AUTO 02012G18KT 10SM OVC060 12/07 A3023 RMK AO2 T01150065
KPKV 201055Z AUTO 01011G16KT 10SM SCT043 BKN050 OVC060 12/07 A3023 RMK AO2 T01160065
KPKV 201035Z AUTO 01010KT 10SM BKN043 OVC050 12/07 A3022 RMK AO2 T01160068
KPKV 201010Z AUTO 01010KT 10SM SCT042 OVC050 12/07 A3023 RMK AO2 T01160070
KPKV 200955Z AUTO 02011KT 10SM SCT040 SCT048 OVC055 12/07 A3022 RMK AO2 T01160069
KPKV 200940Z AUTO 01010G17KT 10SM SCT040 SCT046 OVC055 12/07 A3022 RMK AO2 T01170070
KPKV 200915Z AUTO 01011G19KT 10SM BKN041 BKN046 OVC055 12/07 A3021 RMK AO2 T01180071
KPKV 200900Z AUTO 01011G14KT 10SM OVC039 12/07 A3021 RMK AO2 T01190073
KPKV 200835Z AUTO 01010G15KT 10SM OVC039 12/08 A3021 RMK AO2 T01170076
KPKV 200815Z AUTO 01011G15KT 10SM OVC039 12/08 A3021 RMK AO2 T01180077
KPKV 200755Z AUTO 01010KT 10SM SCT031 OVC039 12/08 A3021 RMK AO2 T01170077
KPKV 200735Z AUTO 01013KT 10SM BKN031 OVC041 12/08 A3021 RMK AO2 T01170078
KPKV 200715Z AUTO 01010G15KT 10SM OVC029 12/08 A3021 RMK AO2 T01170080
KPKV 200655Z AUTO 36011G15KT 10SM OVC029 12/08 A3021 RMK AO2 T01160080
KPKV 200635Z AUTO 01009G14KT 10SM BKN027 OVC043 12/08 A3021 RMK AO2 T01160082
KPKV 200620Z AUTO 01010G14KT 10SM SCT024 BKN029 OVC043 12/08 A3020 RMK AO2 T01160083
KPKV 200555Z AUTO 36009KT 10SM OVC027 12/09 A3021 RMK AO2 T01160085 10120 20115 401200086
KPKV 200535Z AUTO 36009G15KT 10SM OVC025 12/09 A3021 RMK AO2 T01160085
KPKV 200515Z AUTO 36012G17KT 10SM OVC025 12/09 A3021 RMK AO2 T01160087
KPKV 200455Z AUTO 36009KT 10SM SCT018 OVC023 12/09 A3020 RMK AO2 T01170090
KPKV 200435Z AUTO 36009KT 10SM OVC021 12/09 A3019 RMK AO2 T01170092
KPKV 200415Z AUTO 01007KT 10SM OVC017 12/09 A3019 RMK AO2 T01160090
KPKV 200355Z AUTO 36009KT 10SM BKN015 OVC022 12/09 A3019 RMK AO2 T01160091
KPKV 200330Z AUTO 35010KT 10SM BKN015 OVC022 12/09 A3018 RMK AO2 T01160092
KPKV 200315Z AUTO 35009KT 10SM OVC015 12/09 A3018 RMK AO2 T01170092
KPKV 200255Z AUTO 35008KT 10SM OVC015 12/09 A3018 RMK AO2 T01180093
KPKV 200235Z AUTO 36006KT 10SM BKN017 OVC065 12/09 A3018 RMK AO2 T01170091
KPKV 200215Z AUTO 01008KT 10SM BKN016 OVC065 12/09 A3016 RMK AO2 T01170092
KPKV 200155Z AUTO 36008KT 10SM OVC014 12/10 A3016 RMK AO2 T01200095
KPKV 200135Z AUTO 01010G14KT 10SM OVC014 12/10 A3016 RMK AO2 T01180095
KPKV 200115Z AUTO 36009KT 10SM OVC014 12/10 A3016 RMK AO2 T01180095
KPKV 200055Z AUTO 01006KT 10SM OVC012 12/10 A3015 RMK AO2 T01170097
KPKV 200035Z AUTO 36010KT 10SM OVC012 12/10 A3014 RMK AO2 T01160097
KPKV 200015Z AUTO 01008KT 10SM OVC012 12/10 A3013 RMK AO2 T01150097
KPKV 192355Z AUTO 01007KT 10SM OVC010 12/10 A3013 RMK AO2 T01150096 10115 20101
KPKV 192335Z AUTO 01009KT 10SM OVC008 11/10 A3014 RMK AO2 T01130096
KPKV 192315Z AUTO 36007KT 7SM OVC008 11/10 A3014 RMK AO2 T01120095
KPKV 192255Z AUTO 36011KT 7SM OVC006 11/10 A3013 RMK AO2 T01110095
KPKV 192235Z AUTO 36010KT 7SM OVC006 11/10 A3012 RMK AO2 T01110096
KPKV 192215Z AUTO 36010KT 7SM OVC006 11/10 A3013 RMK AO2 T01110095
KPKV 192155Z AUTO 36010KT 7SM OVC006 11/10 A3012 RMK AO2 T01120096
KPKV 192135Z AUTO 36011KT 7SM OVC006 11/10 A3011 RMK AO2 T01100095
KPKV 192115Z AUTO 01006KT 10SM OVC006 11/09 A3013 RMK AO2 T01100094
KPKV 192055Z AUTO 36011G16KT 10SM OVC006 11/09 A3012 RMK AO2 T01100094
KPKV 192035Z AUTO 36011KT 10SM OVC006 11/09 A3012 RMK AO2 T01090093
KPKV 192015Z AUTO 35014KT 10SM OVC006 11/09 A3011 RMK AO2 T01070092
KPKV 191955Z AUTO 36008KT 10SM OVC006 11/09 A3013 RMK AO2 T01070092
KPKV 191935Z AUTO 36015G19KT 10SM OVC006 11/09 A3012 RMK AO2 T01050091
KPKV 191915Z AUTO 35012KT 5SM BR OVC006 10/09 A3015 RMK AO2 T01010088
KPKV 191810Z AUTO 36012KT 7SM OVC006 10/09 A3017 RMK AO2 T01010086
KPKV 191755Z AUTO 36011G15KT 7SM OVC006 10/09 A3018 RMK AO2 60001 T01010086 10103 20086
KPKV 191735Z AUTO 01010KT 10SM OVC006 10/09 A3018 RMK AO2 T01020086
KPKV 191720Z AUTO 36010G15KT 10SM OVC006 10/09 A3018 RMK AO2 T01020087
KPKV 191655Z AUTO 36012KT 10SM OVC006 10/09 A3019 RMK AO2 T01000085
KPKV 191635Z AUTO 01012G18KT 10SM OVC006 10/08 A3019 RMK AO2 T00980084
KPKV 191615Z AUTO 36013KT 10SM OVC006 10/08 A3019 RMK AO2 T00950084
KPKV 191555Z AUTO 36014KT 10SM OVC006 10/08 A3018 RMK AO2 T00950084
KPKV 191535Z AUTO 01012KT 10SM OVC006 09/08 A3018 RMK AO2 T00920081
KPKV 191515Z AUTO 36013G18KT 10SM OVC006 09/08 A3018 RMK AO2 T00910080
KPKV 191455Z AUTO 01012G18KT 7SM OVC006 09/08 A3018 RMK AO2 60001 T00900078
KPKV 191435Z AUTO 36014G21KT 5SM BR OVC006 09/08 A3017 RMK AO2 T00880078
KPKV 191415Z AUTO 01011G18KT 4SM BR OVC006 09/08 A3016 RMK AO2 T00870077
KPKV 191355Z AUTO 36012G17KT 4SM BR OVC004 09/08 A3017 RMK AO2 P0001 T00860077
KPKV 191335Z AUTO 35011KT 4SM -DZ OVC004 09/08 A3015 RMK AO2 T00880080
KPKV 191315Z AUTO 36014KT 4SM RA OVC004 09/08 A3015 RMK AO2 T00900081
KPKV 191255Z AUTO 36014G18KT 4SM BR OVC004 09/08 A3014 RMK AO2 T00900081
KPKV 191235Z AUTO 36013G18KT 4SM BR OVC004 09/08 A3013 RMK AO2 T00910082
KPKV 191215Z AUTO 35011KT 2 1/2SM BR OVC004 09/09 A3013 RMK AO2 T00930085
KPKV 191155Z AUTO 01010G16KT 3SM BR OVC004 09/09 A3012 RMK AO2 70087 T00930085 10106 20093
KPKV 191135Z AUTO 36013G18KT 2 1/2SM -RA OVC004 09/09 A3013 RMK AO2 T00940085
KPKV 191115Z AUTO 01012G16KT 3SM RA OVC004 10/09 A3012 RMK AO2 T00960087
KPKV 191055Z AUTO 01013G18KT 3SM BR OVC004 10/09 A3012 RMK AO2 T00960087
KPKV 191035Z AUTO 01011G20KT 3SM BR OVC004 10/09 A3013 RMK AO2 T00960087
KPKV 191015Z AUTO 36012G16KT 3SM BR OVC004 10/09 A3013 RMK AO2 T00960087
KPKV 190955Z AUTO 36012G16KT 3SM BR OVC004 10/09 A3013 RMK AO2 T01000090
KPKV 190935Z AUTO 36011G16KT 3SM BR OVC004 10/09 A3013 RMK AO2 T01000091